Time;durP1;ratioP1;P1;durP2;ratioP2;P2;SDS_P1;SDS_P2;PMS_P1;PMS_P2;Temp;Humidity;BMP_temperature;BMP_pressure;BME280_temperature;BME280_humidity;BME280_pressure;Samples;Min_cycle;Max_cycle;Signal;HPM_P1;HPM_P2
2023/09/06 00:00:42;;;;;;;25.42;17.38;;;19.90;99.90;;;;;;4905930;29;20068;-59
2023/09/06 00:03:10;;;;;;;29.38;18.02;;;19.80;99.90;;;;;;4911343;29;20088;-58
2023/09/06 00:05:41;;;;;;;24.08;16.75;;;19.70;99.90;;;;;;4894537;29;20496;-60
2023/09/06 00:08:10;;;;;;;28.13;18.55;;;19.70;99.90;;;;;;4908037;29;20048;-59
2023/09/06 00:10:38;;;;;;;29.63;17.85;;;19.70;99.90;;;;;;4910416;29;20070;-60
2023/09/06 00:13:10;;;;;;;29.42;18.75;;;19.70;99.90;;;;;;4906385;29;20063;-59
2023/09/06 00:15:37;;;;;;;24.30;16.85;;;19.70;99.90;;;;;;4904091;29;20045;-59
2023/09/06 00:18:07;;;;;;;30.90;17.25;;;19.80;99.90;;;;;;4911019;29;20044;-60
2023/09/06 00:20:37;;;;;;;29.98;16.80;;;19.80;99.90;;;;;;4906648;29;20068;-58
2023/09/06 00:23:05;;;;;;;25.38;17.33;;;19.80;99.90;;;;;;4896610;29;20515;-64
2023/09/06 00:25:32;;;;;;;33.13;18.00;;;19.80;99.90;;;;;;4911418;29;20052;-59
2023/09/06 00:28:01;;;;;;;24.27;16.45;;;19.70;99.90;;;;;;4564314;29;9999958;-59
2023/09/06 00:30:28;;;;;;;25.98;15.18;;;19.70;99.90;;;;;;4894934;29;20048;-59
2023/09/06 00:32:55;;;;;;;24.20;15.43;;;19.60;99.90;;;;;;4906194;29;20144;-57
2023/09/06 00:35:25;;;;;;;19.77;13.85;;;19.60;99.90;;;;;;4897297;29;20363;-59
2023/09/06 00:37:55;;;;;;;19.15;14.15;;;19.70;99.90;;;;;;4907002;29;20108;-58
2023/09/06 00:40:22;;;;;;;23.63;13.82;;;19.60;99.90;;;;;;4903792;29;20104;-58
2023/09/06 00:42:59;;;;;;;22.88;13.48;;;19.70;99.90;;;;;;4898574;29;20140;-57
2023/09/06 00:45:32;;;;;;;18.25;13.95;;;19.60;99.90;;;;;;4904389;29;20132;-58
2023/09/06 00:48:01;;;;;;;22.33;13.20;;;19.60;99.90;;;;;;4904590;29;20055;-60
2023/09/06 00:50:28;;;;;;;23.17;14.95;;;19.60;99.90;;;;;;4900472;29;20055;-57
2023/09/06 00:52:55;;;;;;;22.08;14.07;;;19.50;99.90;;;;;;4907831;29;20048;-58
2023/09/06 00:55:21;;;;;;;20.83;13.43;;;19.40;99.90;;;;;;4892362;29;20091;-59
2023/09/06 00:57:48;;;;;;;19.13;13.88;;;19.30;99.90;;;;;;4891492;29;20047;-59
2023/09/06 01:00:19;;;;;;;20.55;14.23;;;19.40;99.90;;;;;;4893649;29;20052;-58
2023/09/06 01:02:47;;;;;;;18.70;12.98;;;19.40;99.90;;;;;;4907966;29;20107;-59
2023/09/06 01:05:18;;;;;;;20.45;14.00;;;19.40;99.90;;;;;;4891454;29;20143;-58
2023/09/06 01:07:54;;;;;;;18.63;13.75;;;19.40;99.90;;;;;;4891104;29;20564;-59
2023/09/06 01:10:20;;;;;;;22.92;13.43;;;19.30;99.90;;;;;;4907846;29;20052;-58
2023/09/06 01:12:48;;;;;;;22.63;14.57;;;19.30;99.90;;;;;;4902281;29;20105;-59
2023/09/06 01:15:15;;;;;;;23.10;14.02;;;19.40;99.90;;;;;;4902523;29;20056;-58
2023/09/06 01:17:43;;;;;;;19.00;13.68;;;19.30;99.90;;;;;;4883712;29;20551;-58
2023/09/06 01:20:29;;;;;;;22.92;13.73;;;19.30;99.90;;;;;;4885062;29;20392;-58
2023/09/06 01:23:23;;;;;;;22.33;13.57;;;19.20;99.90;;;;;;4889867;29;20062;-59
2023/09/06 01:25:50;;;;;;;18.10;13.13;;;19.10;99.90;;;;;;4901877;29;20095;-59
2023/09/06 01:28:17;;;;;;;17.08;12.10;;;19.10;99.90;;;;;;4882962;29;20052;-58
2023/09/06 01:30:44;;;;;;;21.70;14.38;;;19.10;99.90;;;;;;4882839;29;20099;-58
2023/09/06 01:33:13;;;;;;;17.65;11.75;;;19.00;99.90;;;;;;4910457;29;20048;-59
2023/09/06 01:35:40;;;;;;;20.88;12.48;;;19.00;99.90;;;;;;4907332;29;20048;-58
2023/09/06 01:38:07;;;;;;;15.07;10.75;;;19.00;99.90;;;;;;4909889;29;20044;-57
2023/09/06 01:40:34;;;;;;;17.90;10.57;;;19.00;99.90;;;;;;4898962;29;20105;-58
2023/09/06 01:43:00;;;;;;;15.73;11.68;;;19.00;99.90;;;;;;4894286;29;20049;-58
2023/09/06 01:45:29;;;;;;;16.77;11.95;;;18.90;99.90;;;;;;4902805;29;20044;-57
2023/09/06 01:47:56;;;;;;;21.02;12.27;;;18.90;99.90;;;;;;4905141;29;20158;-58
2023/09/06 01:50:23;;;;;;;16.42;9.95;;;18.80;99.90;;;;;;4904810;29;20134;-59
2023/09/06 01:52:49;;;;;;;17.45;10.65;;;18.80;99.90;;;;;;4901303;29;20048;-58
2023/09/06 01:55:16;;;;;;;18.42;10.07;;;18.90;99.90;;;;;;4905604;29;20075;-55
2023/09/06 01:57:43;;;;;;;14.80;9.80;;;18.90;99.90;;;;;;4905651;29;20048;-57
2023/09/06 02:00:31;;;;;;;16.00;10.15;;;18.90;99.90;;;;;;4907614;29;20103;-58
2023/09/06 02:02:59;;;;;;;15.10;9.85;;;18.90;99.90;;;;;;4899493;29;20064;-58
2023/09/06 02:05:26;;;;;;;14.77;9.45;;;18.90;99.90;;;;;;4900828;29;20121;-58
2023/09/06 02:07:53;;;;;;;13.77;9.80;;;18.80;99.90;;;;;;4906668;29;20056;-59
2023/09/06 02:10:19;;;;;;;21.10;9.98;;;18.80;99.90;;;;;;4878243;29;20056;-57
2023/09/06 02:12:46;;;;;;;14.05;8.82;;;18.80;99.90;;;;;;4903216;29;20116;-58
2023/09/06 02:15:14;;;;;;;15.27;8.68;;;18.80;99.90;;;;;;4906981;29;20048;-58
2023/09/06 02:17:42;;;;;;;14.55;8.50;;;18.60;99.90;;;;;;4911003;29;20052;-57
2023/09/06 02:20:17;;;;;;;14.82;9.68;;;18.60;99.90;;;;;;4901619;29;20096;-57
2023/09/06 02:22:44;;;;;;;15.65;8.60;;;18.60;99.90;;;;;;4904796;29;20528;-57
2023/09/06 02:25:12;;;;;;;13.88;8.63;;;18.60;99.90;;;;;;4897158;29;20067;-57
2023/09/06 02:27:40;;;;;;;17.92;9.32;;;18.50;99.90;;;;;;4910023;29;20048;-57
2023/09/06 02:30:07;;;;;;;12.50;8.00;;;18.50;99.90;;;;;;4909670;29;20271;-58
2023/09/06 02:32:34;;;;;;;16.90;10.38;;;18.50;99.90;;;;;;4905000;29;20460;-58
2023/09/06 02:35:01;;;;;;;14.93;9.35;;;18.60;99.90;;;;;;4911715;29;20045;-58
2023/09/06 02:37:28;;;;;;;15.45;8.52;;;18.60;99.90;;;;;;4910198;29;20063;-59
2023/09/06 02:39:55;;;;;;;12.85;8.38;;;18.60;99.90;;;;;;4905243;29;20047;-58
2023/09/06 02:42:22;;;;;;;11.48;8.25;;;18.60;99.90;;;;;;4912571;29;20044;-58
2023/09/06 02:44:48;;;;;;;12.85;8.32;;;18.60;99.90;;;;;;4913752;29;20040;-58
2023/09/06 02:47:15;;;;;;;12.10;8.88;;;18.60;99.90;;;;;;4909417;29;20048;-57
2023/09/06 02:49:43;;;;;;;15.82;8.85;;;18.60;99.90;;;;;;4904051;29;20067;-58
2023/09/06 02:52:20;;;;;;;13.70;9.07;;;18.60;99.90;;;;;;4909935;29;20471;-59
2023/09/06 02:54:48;;;;;;;12.00;8.57;;;18.60;99.90;;;;;;4910828;29;20491;-59
2023/09/06 02:57:17;;;;;;;12.27;8.30;;;18.60;99.90;;;;;;4911076;29;20091;-60
2023/09/06 02:59:43;;;;;;;16.45;9.45;;;18.60;99.90;;;;;;4906829;29;20484;-58
2023/09/06 03:02:12;;;;;;;12.73;7.95;;;18.50;99.90;;;;;;4904538;29;20112;-58
2023/09/06 03:04:40;;;;;;;12.52;8.68;;;18.50;99.90;;;;;;4908781;29;20388;-56
2023/09/06 03:07:08;;;;;;;12.73;8.75;;;18.50;99.90;;;;;;4892798;29;20131;-58
2023/09/06 03:09:36;;;;;;;13.95;9.05;;;18.50;99.90;;;;;;4905859;29;20225;-57
2023/09/06 03:12:12;;;;;;;15.73;9.02;;;18.50;99.90;;;;;;4907672;29;20044;-57
2023/09/06 03:14:44;;;;;;;16.95;8.68;;;18.50;99.90;;;;;;4903995;29;20061;-58
2023/09/06 03:17:11;;;;;;;11.25;8.15;;;18.50;99.90;;;;;;4912203;29;20068;-58
2023/09/06 03:19:41;;;;;;;12.90;7.85;;;18.40;99.90;;;;;;4909621;29;20048;-58
2023/09/06 03:22:12;;;;;;;15.80;10.32;;;18.30;99.90;;;;;;4909985;29;20492;-58
2023/09/06 03:24:43;;;;;;;12.23;8.48;;;18.20;99.90;;;;;;4901913;29;20055;-58
2023/09/06 03:27:15;;;;;;;13.70;9.00;;;18.20;99.90;;;;;;4905657;29;20057;-58
2023/09/06 03:29:43;;;;;;;17.05;8.93;;;18.20;99.90;;;;;;4897523;29;20273;-59
2023/09/06 03:32:10;;;;;;;11.25;8.68;;;18.20;99.90;;;;;;4885055;29;20392;-58
2023/09/06 03:34:40;;;;;;;10.30;7.90;;;18.30;99.90;;;;;;4908442;29;20100;-63
2023/09/06 03:37:11;;;;;;;13.88;9.52;;;18.30;99.90;;;;;;4902488;29;20083;-59
2023/09/06 03:39:41;;;;;;;12.32;9.23;;;18.30;99.90;;;;;;4908226;29;20048;-58
2023/09/06 03:42:08;;;;;;;12.75;8.10;;;18.30;99.90;;;;;;4904436;29;20099;-58
2023/09/06 03:44:38;;;;;;;17.58;9.73;;;18.40;99.90;;;;;;4892040;29;20044;-58
2023/09/06 03:47:13;;;;;;;13.25;8.20;;;18.40;99.90;;;;;;4905438;29;20044;-56
2023/09/06 03:49:40;;;;;;;11.65;7.88;;;18.30;99.90;;;;;;4908159;29;20109;-58
2023/09/06 03:52:07;;;;;;;12.60;8.60;;;18.30;99.90;;;;;;4886027;29;20500;-58
2023/09/06 03:54:34;;;;;;;17.08;8.60;;;18.20;99.90;;;;;;4908096;29;20055;-59
2023/09/06 03:57:02;;;;;;;10.68;8.27;;;18.20;99.90;;;;;;4897037;29;20051;-58
2023/09/06 03:59:31;;;;;;;14.65;9.27;;;18.20;99.90;;;;;;4902421;29;20053;-59
2023/09/06 04:01:58;;;;;;;10.27;7.32;;;18.20;99.90;;;;;;4907577;29;20512;-59
2023/09/06 04:04:25;;;;;;;10.45;7.15;;;18.20;99.90;;;;;;4907930;29;20078;-61
2023/09/06 04:06:52;;;;;;;10.48;7.70;;;18.30;99.90;;;;;;4911288;29;20134;-58
2023/09/06 04:09:19;;;;;;;9.65;7.78;;;18.20;99.90;;;;;;4904784;29;20080;-57
2023/09/06 04:11:46;;;;;;;13.68;8.23;;;18.20;99.90;;;;;;4905781;29;20044;-58
2023/09/06 04:14:14;;;;;;;13.90;10.32;;;18.00;99.90;;;;;;4909134;29;20107;-57
2023/09/06 04:16:40;;;;;;;13.95;7.93;;;18.00;99.90;;;;;;4908602;29;20157;-59
2023/09/06 04:19:08;;;;;;;15.23;8.07;;;18.00;99.90;;;;;;4891636;29;20659;-59
2023/09/06 04:21:37;;;;;;;14.98;9.18;;;18.00;99.90;;;;;;4904448;29;20041;-58
2023/09/06 04:24:08;;;;;;;13.30;9.02;;;18.00;99.90;;;;;;4902131;29;20084;-58
2023/09/06 04:26:34;;;;;;;12.60;8.57;;;18.00;99.90;;;;;;4907650;29;20048;-59
2023/09/06 04:29:05;;;;;;;13.60;9.65;;;18.00;99.90;;;;;;4910958;29;20111;-59
2023/09/06 04:31:32;;;;;;;12.75;9.77;;;17.90;99.90;;;;;;4906278;29;20044;-59
2023/09/06 04:33:59;;;;;;;12.05;9.35;;;17.90;99.90;;;;;;4907980;29;20052;-59
2023/09/06 04:36:25;;;;;;;14.82;10.23;;;17.90;99.90;;;;;;4892056;29;20104;-59
2023/09/06 04:38:53;;;;;;;18.75;10.50;;;17.90;99.90;;;;;;4911473;29;20067;-58
2023/09/06 04:41:20;;;;;;;17.63;11.20;;;17.90;99.90;;;;;;4904926;29;20044;-59
2023/09/06 04:43:47;;;;;;;16.55;11.40;;;17.90;99.90;;;;;;4908816;29;20044;-58
2023/09/06 04:46:13;;;;;;;26.42;10.48;;;17.90;99.90;;;;;;4906694;29;20063;-57
2023/09/06 04:48:43;;;;;;;19.48;10.25;;;17.90;99.90;;;;;;4906130;29;20056;-58
2023/09/06 04:51:10;;;;;;;20.80;9.85;;;17.90;99.90;;;;;;4906572;29;20372;-57
2023/09/06 04:53:36;;;;;;;15.25;9.23;;;18.00;99.90;;;;;;4890495;29;20523;-58
2023/09/06 04:56:04;;;;;;;12.82;9.80;;;18.00;99.90;;;;;;4906179;29;20441;-58
2023/09/06 04:58:32;;;;;;;12.60;8.30;;;17.90;99.90;;;;;;4898183;29;20056;-58
2023/09/06 05:01:02;;;;;;;14.60;9.90;;;17.90;99.90;;;;;;4880417;29;20052;-59
2023/09/06 05:03:31;;;;;;;12.23;8.43;;;17.80;99.90;;;;;;4904549;29;20052;-58
2023/09/06 05:06:00;;;;;;;16.83;9.30;;;17.80;99.90;;;;;;4899358;29;20131;-58
2023/09/06 05:08:27;;;;;;;15.45;10.05;;;17.80;99.90;;;;;;4908002;29;20135;-59
2023/09/06 05:10:54;;;;;;;16.65;9.38;;;17.80;99.90;;;;;;4905392;29;20076;-60
2023/09/06 05:13:22;;;;;;;12.25;9.10;;;17.70;99.90;;;;;;4904263;29;20059;-56
2023/09/06 05:15:49;;;;;;;11.95;9.02;;;17.70;99.90;;;;;;4905997;29;20055;-59
2023/09/06 05:18:16;;;;;;;16.50;9.95;;;17.80;99.90;;;;;;4899296;29;20150;-58
2023/09/06 05:20:43;;;;;;;36.95;11.52;;;17.80;99.90;;;;;;4903597;29;20420;-59
2023/09/06 05:23:13;;;;;;;12.30;9.73;;;17.80;99.90;;;;;;4907429;29;20056;-59
2023/09/06 05:25:41;;;;;;;15.98;10.13;;;17.80;99.90;;;;;;4902548;29;20065;-59
2023/09/06 05:28:09;;;;;;;18.52;11.48;;;17.90;99.90;;;;;;4891162;29;20144;-60
2023/09/06 05:30:46;;;;;;;16.95;11.80;;;17.90;99.90;;;;;;4901908;29;20087;-59
2023/09/06 05:33:14;;;;;;;21.55;12.85;;;17.90;99.90;;;;;;4890665;29;20370;-60
2023/09/06 05:35:41;;;;;;;22.63;13.15;;;17.90;99.90;;;;;;4892292;29;20100;-58
2023/09/06 05:38:09;;;;;;;17.77;12.48;;;17.90;99.90;;;;;;4887955;29;20523;-59
2023/09/06 05:40:36;;;;;;;20.25;12.70;;;17.90;99.90;;;;;;4890632;29;20055;-60
2023/09/06 05:43:03;;;;;;;16.92;12.18;;;17.90;99.90;;;;;;4906753;29;20048;-59
2023/09/06 05:45:30;;;;;;;16.73;12.10;;;17.90;99.90;;;;;;4565211;29;9999949;-58
2023/09/06 05:47:57;;;;;;;20.80;12.25;;;17.90;99.90;;;;;;4904384;29;20055;-59
2023/09/06 05:50:26;;;;;;;18.35;11.60;;;17.90;99.90;;;;;;4883343;29;20048;-60
2023/09/06 05:52:54;;;;;;;15.25;10.88;;;17.90;99.90;;;;;;4903240;29;20052;-60
2023/09/06 05:55:21;;;;;;;14.52;11.13;;;17.90;99.90;;;;;;4905331;29;20052;-59
2023/09/06 05:57:48;;;;;;;17.33;11.10;;;17.80;99.90;;;;;;4905242;29;20044;-59
2023/09/06 06:00:15;;;;;;;16.17;10.80;;;17.80;99.90;;;;;;4903701;29;20060;-61
2023/09/06 06:02:44;;;;;;;17.95;10.93;;;17.80;99.90;;;;;;4907067;29;20048;-59
2023/09/06 06:05:14;;;;;;;16.75;10.15;;;17.90;99.90;;;;;;4907356;29;20064;-54
2023/09/06 06:07:42;;;;;;;12.02;8.27;;;17.90;99.90;;;;;;4903864;29;20048;-58
2023/09/06 06:10:09;;;;;;;15.90;8.57;;;18.00;99.90;;;;;;4906463;29;20064;-57
2023/09/06 06:12:38;;;;;;;13.50;8.40;;;18.00;99.90;;;;;;4906045;29;20045;-60
2023/09/06 06:15:08;;;;;;;11.60;8.40;;;18.00;99.90;;;;;;4907513;29;20115;-56
2023/09/06 06:17:38;;;;;;;11.15;8.18;;;18.00;99.90;;;;;;4908805;29;20053;-58
2023/09/06 06:20:06;;;;;;;13.05;8.95;;;18.10;99.90;;;;;;4897218;29;20768;-57
2023/09/06 06:22:37;;;;;;;16.88;9.45;;;18.10;99.90;;;;;;4886044;29;20083;-56
2023/09/06 06:25:06;;;;;;;16.98;10.27;;;18.10;99.90;;;;;;4905884;29;20076;-57
2023/09/06 06:27:33;;;;;;;18.17;11.02;;;18.20;99.90;;;;;;4910274;29;20167;-60
2023/09/06 06:30:00;;;;;;;15.20;9.75;;;18.20;99.90;;;;;;4891820;29;20530;-57
2023/09/06 06:32:27;;;;;;;18.42;11.73;;;18.30;99.90;;;;;;4900202;29;20056;-58
2023/09/06 06:34:55;;;;;;;21.15;12.73;;;18.30;99.90;;;;;;4907624;29;20064;-57
2023/09/06 06:37:21;;;;;;;23.40;12.80;;;18.30;99.90;;;;;;4901462;29;20207;-57
2023/09/06 06:39:49;;;;;;;21.60;14.88;;;18.30;99.90;;;;;;4903370;29;20056;-56
2023/09/06 06:42:15;;;;;;;25.10;15.93;;;18.40;99.90;;;;;;4899868;29;20052;-55
2023/09/06 06:44:46;;;;;;;22.85;16.88;;;18.40;99.90;;;;;;4905172;29;20114;-59
2023/09/06 06:47:13;;;;;;;27.60;16.98;;;18.50;99.90;;;;;;4902347;29;20052;-56
2023/09/06 06:49:40;;;;;;;28.35;16.92;;;18.50;99.90;;;;;;4906205;29;20063;-55
2023/09/06 06:52:07;;;;;;;22.70;15.95;;;18.60;99.90;;;;;;4899118;29;20056;-55
2023/09/06 06:54:34;;;;;;;26.95;15.13;;;18.70;99.90;;;;;;4882693;29;20107;-55
2023/09/06 06:57:01;;;;;;;29.50;17.25;;;18.80;99.90;;;;;;4886182;29;20854;-55
2023/09/06 06:59:28;;;;;;;22.83;16.30;;;18.90;99.90;;;;;;4902466;29;20049;-56
2023/09/06 07:01:55;;;;;;;32.65;19.13;;;19.00;99.90;;;;;;4901128;29;20108;-55
2023/09/06 07:04:22;;;;;;;30.02;19.42;;;19.00;99.90;;;;;;4897103;29;20588;-55
2023/09/06 07:06:49;;;;;;;30.20;20.65;;;19.10;99.90;;;;;;4908063;29;20052;-57
2023/09/06 07:09:15;;;;;;;30.65;21.05;;;19.10;99.90;;;;;;4907289;29;20188;-58
2023/09/06 07:11:43;;;;;;;35.35;22.10;;;19.20;99.90;;;;;;4902270;29;20083;-57
2023/09/06 07:14:09;;;;;;;31.98;20.23;;;19.30;99.90;;;;;;4907043;29;20512;-57
2023/09/06 07:16:37;;;;;;;29.15;18.98;;;19.40;99.90;;;;;;4892689;29;20108;-58
2023/09/06 07:19:05;;;;;;;27.52;18.13;;;19.40;99.90;;;;;;4909306;29;20044;-59
2023/09/06 07:21:32;;;;;;;26.35;19.63;;;19.50;99.90;;;;;;4905865;29;20051;-57
2023/09/06 07:23:58;;;;;;;32.28;22.20;;;19.50;99.90;;;;;;4893387;29;20460;-59
2023/09/06 07:26:25;;;;;;;29.70;19.23;;;19.60;99.90;;;;;;4896816;29;20501;-57
2023/09/06 07:28:52;;;;;;;34.70;21.02;;;19.70;99.90;;;;;;4890624;29;20367;-58
2023/09/06 07:31:19;;;;;;;29.45;19.33;;;19.70;99.90;;;;;;4889487;29;20079;-56
2023/09/06 07:33:46;;;;;;;29.98;20.85;;;19.70;99.90;;;;;;4884273;29;20049;-58
2023/09/06 07:36:14;;;;;;;31.70;19.52;;;19.80;99.90;;;;;;4890410;29;20136;-58
2023/09/06 07:38:41;;;;;;;26.75;19.75;;;19.80;99.90;;;;;;4891832;29;20053;-58
2023/09/06 07:41:08;;;;;;;30.55;18.98;;;19.80;99.90;;;;;;4888127;29;20068;-57
2023/09/06 07:43:36;;;;;;;28.70;19.85;;;19.90;99.90;;;;;;4889573;29;20282;-57
2023/09/06 07:46:03;;;;;;;33.60;20.50;;;20.00;99.90;;;;;;4886558;29;20135;-58
2023/09/06 07:48:30;;;;;;;31.38;20.13;;;20.10;99.90;;;;;;4866112;29;20382;-58
2023/09/06 07:50:59;;;;;;;31.65;20.02;;;20.10;99.90;;;;;;4866034;29;20060;-58
2023/09/06 07:53:26;;;;;;;34.47;21.15;;;20.20;99.90;;;;;;4892670;29;20068;-58
2023/09/06 07:55:53;;;;;;;34.67;21.98;;;20.20;99.90;;;;;;4887221;29;20509;-58
2023/09/06 07:58:20;;;;;;;32.40;21.05;;;20.30;99.90;;;;;;4887335;29;20091;-58
2023/09/06 08:00:48;;;;;;;35.85;21.13;;;20.40;99.90;;;;;;4884292;29;20048;-57
2023/09/06 08:03:28;;;;;;;35.20;21.52;;;20.40;99.90;;;;;;4889492;29;20536;-56
2023/09/06 08:05:56;;;;;;;36.38;21.58;;;20.50;99.90;;;;;;4885399;29;20266;-60
2023/09/06 08:08:23;;;;;;;29.83;21.45;;;20.70;99.90;;;;;;4864207;29;20131;-57
2023/09/06 08:10:50;;;;;;;32.13;20.63;;;20.70;99.90;;;;;;4885983;29;20052;-62
2023/09/06 08:13:16;;;;;;;34.88;21.83;;;20.80;99.90;;;;;;4886146;29;20303;-57
2023/09/06 08:15:44;;;;;;;35.13;22.67;;;20.90;99.90;;;;;;4889993;29;20536;-59
2023/09/06 08:18:10;;;;;;;40.10;21.88;;;21.00;99.90;;;;;;4879581;29;20541;-59
2023/09/06 08:20:38;;;;;;;42.65;25.58;;;21.00;99.90;;;;;;4890501;29;20044;-58
2023/09/06 08:23:04;;;;;;;38.22;26.13;;;21.10;99.90;;;;;;4864564;29;20045;-59
2023/09/06 08:25:33;;;;;;;41.53;25.90;;;21.20;99.90;;;;;;4883887;29;20096;-60
2023/09/06 08:28:00;;;;;;;36.65;25.48;;;21.30;99.90;;;;;;4906534;29;20047;-59
2023/09/06 08:30:27;;;;;;;35.25;25.60;;;21.40;99.90;;;;;;4909296;29;20156;-59
2023/09/06 08:32:55;;;;;;;43.10;26.25;;;21.40;99.90;;;;;;4886330;29;20464;-60
2023/09/06 08:35:23;;;;;;;32.00;23.05;;;21.50;99.90;;;;;;4910728;29;20104;-59
2023/09/06 08:37:50;;;;;;;47.50;27.23;;;21.50;99.90;;;;;;4902132;29;20044;-57
2023/09/06 08:40:18;;;;;;;37.97;23.45;;;21.60;99.90;;;;;;4909865;29;20499;-60
2023/09/06 08:42:45;;;;;;;39.50;23.52;;;21.70;99.90;;;;;;4903893;29;20456;-60
2023/09/06 08:45:12;;;;;;;42.53;26.25;;;21.80;99.90;;;;;;4909396;29;20052;-59
2023/09/06 08:47:39;;;;;;;31.23;22.75;;;21.90;99.90;;;;;;4888221;29;20112;-59
2023/09/06 08:50:10;;;;;;;37.60;24.83;;;22.00;99.90;;;;;;4909620;29;20051;-58
2023/09/06 08:52:41;;;;;;;40.33;23.67;;;22.00;99.90;;;;;;4908334;29;20438;-59
2023/09/06 08:55:11;;;;;;;30.80;23.30;;;22.20;99.90;;;;;;4888357;29;20052;-58
2023/09/06 08:57:39;;;;;;;36.72;23.45;;;22.30;99.90;;;;;;4909583;29;20044;-57
2023/09/06 09:00:09;;;;;;;33.88;22.48;;;22.40;99.90;;;;;;4896956;29;20110;-58
2023/09/06 09:02:37;;;;;;;28.42;20.23;;;22.40;99.90;;;;;;4898687;29;20045;-63
2023/09/06 09:05:05;;;;;;;31.60;21.10;;;22.60;99.90;;;;;;4547443;29;10000690;-60
2023/09/06 09:07:56;;;;;;;26.27;18.67;;;22.60;99.90;;;;;;4896556;29;20040;-58
2023/09/06 09:10:26;;;;;;;34.08;20.30;;;22.80;99.90;;;;;;4904234;29;20055;-57
2023/09/06 09:12:55;;;;;;;27.92;18.38;;;22.80;99.90;;;;;;4898575;29;20123;-59
2023/09/06 09:15:22;;;;;;;27.88;18.50;;;22.90;99.90;;;;;;4873952;29;20056;-60
2023/09/06 09:17:50;;;;;;;25.38;16.45;;;23.00;99.90;;;;;;4882525;29;20496;-58
2023/09/06 09:20:26;;;;;;;24.90;15.65;;;23.10;99.90;;;;;;4905027;29;20091;-60
2023/09/06 09:22:58;;;;;;;31.10;16.67;;;23.30;99.90;;;;;;4904254;29;20045;-59
2023/09/06 09:25:25;;;;;;;25.33;14.77;;;23.40;99.90;;;;;;4887949;29;20076;-57
2023/09/06 09:27:55;;;;;;;24.35;15.05;;;23.60;99.90;;;;;;4905374;29;20044;-58
2023/09/06 09:30:23;;;;;;;21.42;15.90;;;23.90;99.90;;;;;;4905913;29;20448;-60
2023/09/06 09:33:03;;;;;;;24.60;15.77;;;24.10;99.90;;;;;;4889381;29;20071;-59
2023/09/06 09:35:31;;;;;;;21.58;13.15;;;24.20;99.90;;;;;;4909441;29;20107;-58
2023/09/06 09:38:01;;;;;;;23.00;13.15;;;24.40;99.90;;;;;;4907666;29;20052;-59
2023/09/06 09:40:34;;;;;;;20.52;13.13;;;24.60;99.90;;;;;;4907778;29;20472;-59
2023/09/06 09:43:18;;;;;;;24.48;13.55;;;24.70;99.90;;;;;;4908006;29;20055;-59
2023/09/06 09:45:45;;;;;;;20.40;13.15;;;25.00;99.90;;;;;;4898953;29;20072;-59
2023/09/06 09:48:14;;;;;;;25.33;12.40;;;25.20;99.90;;;;;;4905275;29;20048;-59
2023/09/06 09:50:41;;;;;;;18.60;11.35;;;25.30;99.90;;;;;;4888182;29;20056;-58
2023/09/06 09:53:09;;;;;;;18.83;11.75;;;25.50;99.90;;;;;;4891339;29;20078;-63
2023/09/06 09:55:48;;;;;;;26.50;12.13;;;25.70;99.90;;;;;;4884204;29;20407;-64
2023/09/06 09:58:15;;;;;;;22.10;12.85;;;25.80;99.90;;;;;;4906984;29;20063;-59
2023/09/06 10:00:42;;;;;;;20.10;12.18;;;26.00;99.90;;;;;;4898950;29;20053;-59
2023/09/06 10:03:09;;;;;;;15.52;11.60;;;25.90;99.90;;;;;;4890028;29;20455;-59
2023/09/06 10:05:37;;;;;;;20.13;10.60;;;25.90;99.90;;;;;;4899960;29;20079;-59
2023/09/06 10:08:05;;;;;;;14.27;10.32;;;25.80;99.90;;;;;;4908236;29;20527;-58
2023/09/06 10:10:33;;;;;;;20.70;10.70;;;25.80;99.90;;;;;;4895627;29;20052;-59
2023/09/06 10:13:06;;;;;;;22.20;11.77;;;25.80;99.90;;;;;;4885400;29;20456;-59
2023/09/06 10:15:34;;;;;;;17.25;10.35;;;25.80;99.90;;;;;;4906848;29;20052;-59
2023/09/06 10:18:01;;;;;;;18.35;11.05;;;25.70;99.90;;;;;;4899720;29;20135;-59
2023/09/06 10:20:30;;;;;;;16.67;10.85;;;25.70;99.90;;;;;;4906341;29;20060;-59
2023/09/06 10:22:57;;;;;;;20.75;11.18;;;25.80;99.90;;;;;;4890710;29;20052;-58
2023/09/06 10:25:25;;;;;;;15.70;10.50;;;25.70;99.90;;;;;;4904955;29;20055;-59
2023/09/06 10:27:53;;;;;;;20.10;11.18;;;25.80;99.90;;;;;;4893603;29;20043;-60
2023/09/06 10:30:34;;;;;;;16.27;10.10;;;25.80;99.90;;;;;;4908981;29;20057;-59
2023/09/06 10:33:04;;;;;;;23.50;12.90;;;25.80;99.90;;;;;;4906960;29;20453;-59
2023/09/06 10:35:32;;;;;;;20.42;12.07;;;25.90;99.90;;;;;;4909558;29;20059;-60
2023/09/06 10:38:05;;;;;;;18.58;10.73;;;25.90;99.90;;;;;;4907872;29;20048;-60
2023/09/06 10:41:04;;;;;;;20.75;12.40;;;26.00;99.90;;;;;;4904538;29;20404;-60
2023/09/06 10:43:48;;;;;;;21.20;10.27;;;26.00;99.90;;;;;;4877904;29;20056;-60
2023/09/06 10:46:18;;;;;;;18.77;10.27;;;26.10;99.90;;;;;;4903391;29;20048;-59
2023/09/06 10:49:19;;;;;;;32.85;12.88;;;26.00;99.90;;;;;;4908916;29;20299;-60
2023/09/06 10:52:04;;;;;;;14.35;11.13;;;26.10;99.90;;;;;;4902142;29;20055;-58
2023/09/06 10:54:38;;;;;;;;;;;26.20;99.90;;;;;;4882493;29;20049;-58
2023/09/06 10:57:10;;;;;;;12.68;8.13;;;26.20;99.90;;;;;;4899733;29;19923;-60
2023/09/06 10:59:38;;;;;;;15.02;10.30;;;26.20;99.90;;;;;;4909405;29;20135;-59
2023/09/06 11:02:23;;;;;;;15.70;11.07;;;26.20;99.90;;;;;;4907870;29;20307;-59
2023/09/06 11:05:07;;;;;;;15.30;10.43;;;26.30;99.90;;;;;;4909904;29;20052;-59
2023/09/06 11:07:43;;;;;;;22.92;10.93;;;26.30;99.90;;;;;;4909829;29;20094;-59
2023/09/06 11:10:22;;;;;;;19.75;10.50;;;26.30;99.90;;;;;;4908190;29;20052;-60
2023/09/06 11:12:51;;;;;;;16.83;11.15;;;26.40;99.90;;;;;;4910759;29;20044;-60
2023/09/06 11:15:17;;;;;;;13.55;9.60;;;26.40;99.90;;;;;;4906459;29;20049;-59
2023/09/06 11:17:44;;;;;;;14.95;8.27;;;26.50;99.90;;;;;;4889423;29;20048;-60
2023/09/06 11:20:14;;;;;;;14.80;8.43;;;26.60;99.90;;;;;;4891515;29;20082;-60
2023/09/06 11:22:51;;;;;;;16.65;8.45;;;26.70;99.90;;;;;;4900510;29;20048;-59
2023/09/06 11:25:21;;;;;;;17.33;8.45;;;26.80;99.90;;;;;;4907393;29;20048;-57
2023/09/06 11:27:49;;;;;;;14.65;7.47;;;27.00;99.90;;;;;;4902545;29;20098;-60
2023/09/06 11:30:21;;;;;;;18.38;9.40;;;27.10;99.90;;;;;;4568321;29;10000690;-60
2023/09/06 11:32:49;;;;;;;11.13;7.13;;;27.10;99.90;;;;;;4904872;29;20713;-58
2023/09/06 11:35:19;;;;;;;16.75;7.93;;;27.20;99.90;;;;;;4889176;29;20135;-58
2023/09/06 11:37:50;;;;;;;14.15;8.60;;;27.20;99.90;;;;;;4888446;29;20049;-59
2023/09/06 11:40:19;;;;;;;12.50;7.22;;;27.30;99.90;;;;;;4888191;29;20158;-61
2023/09/06 11:42:54;;;;;;;11.63;6.38;;;27.30;99.90;;;;;;4889202;29;20051;-58
2023/09/06 11:45:20;;;;;;;14.30;6.13;;;27.30;99.90;;;;;;4886537;29;20060;-60
2023/09/06 11:47:47;;;;;;;12.85;7.70;;;27.40;99.90;;;;;;4890971;29;20101;-60
2023/09/06 11:50:19;;;;;;;18.15;6.03;;;27.40;99.90;;;;;;4903691;29;20055;-59
2023/09/06 11:52:48;;;;;;;10.55;6.40;;;27.50;99.90;;;;;;4906356;29;20044;-60
2023/09/06 11:55:26;;;;;;;8.48;5.18;;;27.50;99.90;;;;;;4903982;29;20155;-58
2023/09/06 11:57:56;;;;;;;9.02;5.60;;;27.50;99.90;;;;;;4909430;29;20048;-58
2023/09/06 12:00:28;;;;;;;7.72;6.28;;;27.70;99.90;;;;;;4890682;29;20095;-61
2023/09/06 12:03:10;;;;;;;13.70;7.20;;;27.70;99.90;;;;;;4894398;29;20044;-59
2023/09/06 12:05:40;;;;;;;13.38;6.88;;;27.70;99.90;;;;;;4901337;29;20131;-59
2023/09/06 12:08:20;;;;;;;17.60;6.45;;;27.80;99.90;;;;;;4892595;29;20490;-59
2023/09/06 12:10:50;;;;;;;10.25;6.40;;;27.90;99.90;;;;;;4897387;29;20052;-59
2023/09/06 12:13:17;;;;;;;12.40;6.20;;;27.90;99.90;;;;;;4905289;29;20059;-58
2023/09/06 12:15:44;;;;;;;15.05;6.05;;;28.00;99.90;;;;;;4905498;29;20044;-60
2023/09/06 12:18:12;;;;;;;11.60;6.40;;;28.10;99.90;;;;;;4904559;29;20108;-60
2023/09/06 12:20:39;;;;;;;13.85;5.93;;;28.10;99.90;;;;;;4883698;29;20072;-59
2023/09/06 12:23:06;;;;;;;12.88;5.60;;;28.20;99.90;;;;;;4901391;29;20521;-59
2023/09/06 12:25:34;;;;;;;17.73;6.90;;;28.30;99.90;;;;;;4845550;29;1113135;-59
2023/09/06 12:28:03;;;;;;;23.13;6.75;;;28.30;99.90;;;;;;4907078;29;20055;-59
2023/09/06 12:30:30;;;;;;;17.35;5.78;;;28.40;99.90;;;;;;4909444;29;20056;-59
2023/09/06 12:32:57;;;;;;;17.00;5.20;;;28.50;99.90;;;;;;4903954;29;20104;-59
2023/09/06 12:35:24;;;;;;;12.50;5.72;;;28.60;99.90;;;;;;4909365;29;20408;-58
2023/09/06 12:37:52;;;;;;;11.02;5.00;;;28.70;99.90;;;;;;4905936;29;20048;-59
2023/09/06 12:40:25;;;;;;;9.98;5.88;;;28.70;99.90;;;;;;4905750;29;20467;-59